createdAt,value
2023-03-23T16:01:18.349Z,98222.59
2023-03-23T16:06:25.136Z,98228.94
2023-03-23T16:11:31.227Z,98239.00
2023-03-23T16:16:38.447Z,98232.69
2023-03-23T16:21:41.987Z,98219.47
2023-03-23T16:26:44.878Z,98221.59
2023-03-23T16:31:49.537Z,98244.06
2023-03-23T16:36:52.556Z,98251.97
2023-03-23T16:41:55.509Z,98260.94
2023-03-23T16:46:59.813Z,98256.88
2023-03-23T16:52:02.740Z,98264.56
2023-03-23T16:57:06.529Z,98272.22
2023-03-23T17:02:12.480Z,98265.88
2023-03-23T17:07:15.970Z,98266.66
2023-03-23T17:12:19.197Z,98269.81
2023-03-23T17:17:24.392Z,98276.94
2023-03-23T17:22:27.568Z,98300.69
2023-03-23T17:27:30.810Z,98299.03
2023-03-23T17:32:36.642Z,98290.81
2023-03-23T17:37:39.649Z,98301.56
2023-03-23T17:42:42.700Z,98299.38
2023-03-23T17:47:47.058Z,98306.38
2023-03-23T17:52:50.448Z,98307.09
2023-03-23T17:57:53.396Z,98304.44
2023-03-23T18:02:57.672Z,98312.34
2023-03-23T18:08:00.867Z,98296.16
2023-03-23T18:13:03.919Z,98311.25
2023-03-23T18:18:08.185Z,98318.44
2023-03-23T18:23:11.314Z,98301.63
2023-03-23T18:28:14.223Z,98308.16
2023-03-23T18:33:20.376Z,98295.88
2023-03-23T18:38:23.398Z,98290.34
2023-03-23T18:43:26.378Z,98299.25
2023-03-23T18:48:30.662Z,98296.81
2023-03-23T18:53:33.777Z,98289.50
2023-03-23T18:58:37.733Z,98285.72
2023-03-23T19:03:42.328Z,98291.50
2023-03-23T19:08:45.991Z,98292.81
2023-03-23T19:14:00.376Z,98304.91
2023-03-23T19:19:07.777Z,98301.47
2023-03-23T19:24:11.218Z,98301.47
2023-03-23T19:34:24.535Z,98295.56
2023-03-23T19:39:27.974Z,98299.06
2023-03-23T19:44:30.879Z,98283.66
2023-03-23T19:49:35.194Z,98285.28
2023-03-23T19:54:38.715Z,98285.94
2023-03-23T19:59:42.254Z,98290.59
2023-03-23T20:04:46.947Z,98287.94
2023-03-23T20:09:50.032Z,98302.22
2023-03-23T20:14:53.192Z,98294.88
2023-03-23T20:19:57.899Z,98295.84
2023-03-23T20:25:01.056Z,98295.91
2023-03-23T20:30:06.189Z,98301.06
2023-03-23T20:35:13.118Z,98294.09
2023-03-23T20:40:16.000Z,98301.94
2023-03-23T20:45:20.177Z,98304.94
2023-03-23T20:50:24.480Z,98315.34
2023-03-23T20:55:27.813Z,98308.91
2023-03-23T21:00:30.797Z,98297.56
2023-03-23T21:05:35.467Z,98302.13
2023-03-23T21:10:39.421Z,98296.63
2023-03-23T21:15:43.242Z,98298.06
2023-03-23T21:20:47.917Z,98293.09
2023-03-23T21:25:50.882Z,98278.06
2023-03-23T21:30:54.697Z,98276.28
2023-03-23T21:36:00.433Z,98271.50
2023-03-23T21:41:08.996Z,98263.59
2023-03-23T21:46:14.038Z,98268.97
2023-03-23T21:51:21.171Z,98264.94
2023-03-23T21:56:27.236Z,98253.69
2023-03-23T22:01:30.526Z,98255.16
2023-03-23T22:06:35.301Z,98255.97
2023-03-23T22:11:39.968Z,98250.41
2023-03-23T22:16:43.134Z,98245.41
2023-03-23T22:21:47.638Z,98242.56
2023-03-23T22:26:50.947Z,98235.66
2023-03-23T22:31:54.066Z,98224.59
2023-03-23T22:36:58.372Z,98217.69
2023-03-23T22:42:01.463Z,98217.88
2023-03-23T22:47:04.466Z,98208.03
2023-03-23T22:52:08.824Z,98200.91
2023-03-23T22:57:11.919Z,98193.38
2023-03-23T23:02:14.984Z,98188.28
2023-03-23T23:07:19.359Z,98181.97
2023-03-23T23:12:22.405Z,98181.41
2023-03-23T23:17:26.572Z,98167.06
2023-03-23T23:22:31.308Z,98164.50
2023-03-23T23:27:34.929Z,98174.44
2023-03-23T23:32:38.133Z,98159.59
2023-03-23T23:37:42.490Z,98157.34
2023-03-23T23:42:46.996Z,98144.72
2023-03-23T23:47:50.438Z,98142.56
2023-03-23T23:52:55.067Z,98137.34
2023-03-23T23:57:57.976Z,98134.66
